createdAt,value
2023-01-29T00:00:03.268Z,88.54
2023-01-29T00:01:03.244Z,91.37
2023-01-29T00:02:03.356Z,92.52
2023-01-29T00:03:03.239Z,90.81
2023-01-29T00:04:03.205Z,90.08
2023-01-29T00:05:20.665Z,88.29
2023-01-29T00:06:03.202Z,88.19
2023-01-29T00:07:03.166Z,88.19
2023-01-29T00:08:03.189Z,88.61
2023-01-29T00:09:03.150Z,87.98
2023-01-29T00:10:03.141Z,87.77
2023-01-29T00:11:03.143Z,87.35
2023-01-29T00:12:03.126Z,87.77
2023-01-29T00:13:03.125Z,90.70
2023-01-29T00:14:03.107Z,90.39
2023-01-29T00:15:03.104Z,87.88
2023-01-29T00:16:03.112Z,86.93
2023-01-29T00:17:03.173Z,86.41
2023-01-29T00:18:03.086Z,87.35
2023-01-29T00:19:03.062Z,87.77
2023-01-29T00:20:03.080Z,88.71
2023-01-29T00:21:03.030Z,87.04
2023-01-29T00:22:03.050Z,86.62
2023-01-29T00:23:03.010Z,85.78
2023-01-29T00:24:03.078Z,85.36
2023-01-29T00:25:03.023Z,86.14
2023-01-29T00:26:03.019Z,86.45
2023-01-29T00:27:03.008Z,86.66
2023-01-29T00:28:02.972Z,86.77
2023-01-29T00:29:02.958Z,85.72
2023-01-29T00:30:02.950Z,85.51
2023-01-29T00:31:03.024Z,85.72
2023-01-29T00:32:03.034Z,85.61
2023-01-29T00:33:02.905Z,86.60
2023-01-29T00:34:02.932Z,86.07
2023-01-29T00:35:02.897Z,86.07
2023-01-29T00:36:02.903Z,86.38
2023-01-29T00:37:02.922Z,87.43
2023-01-29T00:38:02.882Z,87.96
2023-01-29T00:39:02.990Z,87.81
2023-01-29T00:40:02.864Z,88.44
2023-01-29T00:41:02.828Z,88.54
2023-01-29T00:42:02.843Z,89.28
2023-01-29T00:43:02.850Z,90.64
2023-01-29T00:44:02.835Z,90.33
2023-01-29T00:45:02.802Z,88.96
2023-01-29T00:46:02.798Z,88.65
2023-01-29T00:47:02.807Z,89.03
2023-01-29T00:48:02.786Z,90.28
2023-01-29T00:49:02.757Z,90.59
2023-01-29T00:50:02.756Z,90.39
2023-01-29T00:51:02.735Z,88.92
2023-01-29T00:52:02.742Z,89.93
2023-01-29T00:53:02.704Z,90.97
2023-01-29T00:54:02.742Z,91.25
2023-01-29T00:55:02.694Z,88.11
2023-01-29T00:56:02.732Z,89.15
2023-01-29T00:57:02.672Z,85.22
2023-01-29T00:58:02.703Z,85.22
2023-01-29T00:59:02.652Z,85.22
2023-01-29T01:00:02.649Z,86.16
2023-01-29T01:01:02.775Z,84.49
2023-01-29T01:02:02.674Z,84.42
2023-01-29T01:03:02.607Z,84.84
2023-01-29T01:04:02.615Z,86.52
2023-01-29T01:05:02.593Z,91.22
2023-01-29T01:06:02.621Z,89.13
2023-01-29T01:07:02.591Z,86.10
2023-01-29T01:08:02.580Z,85.36
2023-01-29T01:09:02.554Z,85.99
2023-01-29T01:10:02.553Z,87.66
2023-01-29T01:11:02.538Z,88.82
2023-01-29T01:12:02.545Z,86.31
2023-01-29T01:13:02.501Z,86.31
2023-01-29T01:14:02.513Z,85.68
2023-01-29T01:15:02.511Z,86.83
2023-01-29T01:16:02.544Z,90.18
2023-01-29T01:17:02.491Z,89.97
2023-01-29T01:18:02.476Z,87.98
2023-01-29T01:19:02.449Z,86.62
2023-01-29T01:20:02.451Z,85.78
2023-01-29T01:21:02.442Z,87.66
2023-01-29T01:22:02.447Z,89.34
2023-01-29T01:23:02.428Z,89.93
2023-01-29T01:24:02.433Z,88.04
2023-01-29T01:25:02.427Z,88.46
2023-01-29T01:26:02.397Z,88.99
2023-01-29T01:27:02.383Z,87.00
2023-01-29T01:28:05.061Z,86.90
2023-01-29T01:29:02.392Z,86.69
2023-01-29T01:30:02.359Z,86.06
2023-01-29T01:31:02.350Z,86.79
2023-01-29T01:32:02.394Z,86.31
2023-01-29T01:33:02.315Z,87.04
2023-01-29T01:34:02.405Z,88.40
2023-01-29T01:35:02.285Z,87.15
2023-01-29T01:36:02.285Z,90.77
2023-01-29T01:37:02.267Z,89.09
2023-01-29T01:38:02.284Z,89.09
2023-01-29T01:39:02.243Z,89.72
2023-01-29T01:40:02.265Z,92.44
2023-01-29T01:41:02.236Z,90.24
2023-01-29T01:42:02.224Z,89.20
2023-01-29T01:43:02.214Z,89.93
2023-01-29T01:44:02.225Z,87.21
2023-01-29T01:45:02.201Z,85.85
2023-01-29T01:46:02.225Z,89.51
2023-01-29T01:47:02.164Z,92.29
2023-01-29T01:48:02.177Z,90.31
2023-01-29T01:49:02.159Z,88.95
2023-01-29T01:50:02.164Z,89.05
2023-01-29T01:51:02.157Z,86.75
2023-01-29T01:52:02.142Z,87.48
2023-01-29T01:53:02.138Z,89.26
2023-01-29T01:54:02.113Z,87.07
2023-01-29T01:55:02.105Z,86.47
2023-01-29T01:56:02.090Z,87.00
2023-01-29T01:57:02.069Z,90.31
2023-01-29T01:58:02.073Z,90.24
2023-01-29T01:59:02.054Z,92.08
2023-01-29T02:00:02.048Z,93.13
2023-01-29T02:01:02.066Z,92.29
2023-01-29T02:02:02.058Z,90.20
2023-01-29T02:03:02.003Z,88.64
2023-01-29T02:04:01.998Z,88.53
2023-01-29T02:05:02.045Z,86.54
2023-01-29T02:06:01.983Z,89.15
2023-01-29T02:07:01.995Z,87.31
2023-01-29T02:08:02.076Z,87.10
2023-01-29T02:09:01.959Z,86.47
2023-01-29T02:10:01.945Z,89.72
2023-01-29T02:11:01.929Z,89.93
2023-01-29T02:12:01.932Z,87.52
2023-01-29T02:13:01.906Z,90.45
2023-01-29T02:14:01.911Z,90.87
2023-01-29T02:15:01.887Z,88.36
2023-01-29T02:16:01.878Z,90.34
2023-01-29T02:17:01.881Z,89.72
2023-01-29T02:18:01.863Z,87.63
2023-01-29T02:19:01.862Z,88.78
2023-01-29T02:20:10.248Z,87.73
2023-01-29T02:21:01.844Z,90.45
2023-01-29T02:22:02.499Z,88.57
2023-01-29T02:23:03.731Z,89.72
2023-01-29T02:24:01.876Z,89.83
2023-01-29T02:25:01.784Z,86.90
2023-01-29T02:26:01.792Z,89.51
2023-01-29T02:27:01.767Z,88.04
2023-01-29T02:28:01.775Z,86.41
2023-01-29T02:29:01.749Z,87.98
2023-01-29T02:30:01.738Z,90.28
2023-01-29T02:31:01.853Z,89.76
2023-01-29T02:32:01.795Z,88.50
2023-01-29T02:33:01.709Z,87.46
2023-01-29T02:34:01.723Z,89.03
2023-01-29T02:35:01.689Z,90.18
2023-01-29T02:36:01.668Z,91.50
2023-01-29T02:37:01.673Z,90.24
2023-01-29T02:38:01.651Z,89.30
2023-01-29T02:39:01.664Z,89.20
2023-01-29T02:40:01.665Z,90.14
2023-01-29T02:41:01.637Z,90.34
2023-01-29T02:42:01.649Z,91.98
2023-01-29T02:43:01.631Z,92.08
2023-01-29T02:44:01.586Z,89.09
2023-01-29T02:45:01.594Z,88.95
2023-01-29T02:46:01.643Z,88.36
2023-01-29T02:47:01.583Z,89.83
2023-01-29T02:48:01.567Z,89.09
2023-01-29T02:49:01.567Z,87.31
2023-01-29T02:50:01.555Z,86.90
2023-01-29T02:51:01.543Z,88.15
2023-01-29T02:52:01.516Z,88.78
2023-01-29T02:53:01.533Z,89.93
2023-01-29T02:54:01.533Z,89.72
2023-01-29T02:55:01.528Z,88.04
2023-01-29T02:56:01.474Z,86.93
2023-01-29T02:57:01.487Z,86.41
2023-01-29T02:58:01.455Z,88.40
2023-01-29T02:59:01.491Z,89.13
2023-01-29T03:00:01.437Z,92.65
2023-01-29T03:01:01.492Z,90.24
2023-01-29T03:02:01.545Z,88.88
2023-01-29T03:03:01.407Z,88.15
2023-01-29T03:04:01.396Z,89.09
2023-01-29T03:05:01.401Z,88.57
2023-01-29T03:06:01.373Z,87.00
2023-01-29T03:07:01.351Z,86.52
2023-01-29T03:08:01.356Z,88.92
2023-01-29T03:09:01.377Z,88.61
2023-01-29T03:10:01.355Z,89.55
2023-01-29T03:11:01.293Z,91.28
2023-01-29T03:12:01.317Z,90.97
2023-01-29T03:13:01.306Z,90.45
2023-01-29T03:14:01.300Z,89.20
2023-01-29T03:15:01.286Z,89.61
2023-01-29T03:16:01.285Z,90.45
2023-01-29T03:17:01.269Z,88.36
2023-01-29T03:18:01.267Z,88.46
2023-01-29T03:19:01.256Z,89.93
2023-01-29T03:20:01.243Z,89.51
2023-01-29T03:21:01.274Z,89.30
2023-01-29T03:22:01.177Z,90.77
2023-01-29T03:23:01.208Z,92.96
2023-01-29T03:24:01.222Z,92.40
2023-01-29T03:25:01.199Z,88.57
2023-01-29T03:26:01.180Z,89.36
2023-01-29T03:27:01.171Z,91.77
2023-01-29T03:28:01.152Z,90.31
2023-01-29T03:29:01.196Z,88.74
2023-01-29T03:30:01.152Z,87.38
2023-01-29T03:31:01.167Z,88.84
2023-01-29T03:32:01.151Z,89.99
2023-01-29T03:33:01.107Z,90.09
2023-01-29T03:34:01.097Z,89.36
2023-01-29T03:35:01.132Z,88.74
2023-01-29T03:36:01.114Z,89.68
2023-01-29T03:37:01.083Z,90.72
2023-01-29T03:38:01.060Z,89.05
2023-01-29T03:39:01.058Z,90.09
2023-01-29T03:40:01.065Z,88.95
2023-01-29T03:41:01.039Z,89.05
2023-01-29T03:42:01.030Z,89.99
2023-01-29T03:43:01.018Z,89.15
2023-01-29T03:44:01.009Z,88.53
2023-01-29T03:45:01.001Z,87.17
2023-01-29T03:46:01.028Z,87.94
2023-01-29T03:47:00.996Z,88.26
2023-01-29T03:48:00.958Z,89.09
2023-01-29T03:49:00.964Z,89.51
2023-01-29T03:50:00.933Z,89.40
2023-01-29T03:51:00.938Z,88.57
2023-01-29T03:52:00.918Z,88.78
2023-01-29T03:53:00.932Z,90.03
2023-01-29T03:54:00.905Z,88.99
2023-01-29T03:55:00.897Z,89.72
2023-01-29T03:56:00.902Z,92.08
2023-01-29T03:57:00.880Z,90.41
2023-01-29T03:58:00.854Z,90.09
2023-01-29T03:59:00.902Z,89.15
2023-01-29T04:00:00.834Z,89.15
2023-01-29T04:01:00.900Z,90.09
2023-01-29T04:02:00.834Z,90.09
2023-01-29T04:03:00.814Z,90.72
2023-01-29T04:04:00.848Z,88.84
2023-01-29T04:05:00.787Z,87.80
2023-01-29T04:06:00.777Z,88.32
2023-01-29T04:07:00.782Z,87.84
2023-01-29T04:08:00.776Z,87.94
2023-01-29T04:09:00.764Z,88.04
2023-01-29T04:10:00.775Z,88.57
2023-01-29T04:11:00.746Z,90.45
2023-01-29T04:12:00.756Z,88.99
2023-01-29T04:13:00.732Z,87.84
2023-01-29T04:14:00.703Z,90.56
2023-01-29T04:15:00.710Z,92.19
2023-01-29T04:16:00.684Z,90.20
2023-01-29T04:17:00.677Z,88.11
2023-01-29T04:18:00.669Z,89.40
2023-01-29T04:19:00.677Z,89.89
2023-01-29T04:20:00.642Z,91.35
2023-01-29T04:21:00.648Z,91.25
2023-01-29T04:22:00.676Z,89.68
2023-01-29T04:23:00.637Z,86.65
2023-01-29T04:24:00.641Z,87.21
2023-01-29T04:25:00.612Z,87.63
2023-01-29T04:26:00.579Z,88.67
2023-01-29T04:27:00.577Z,90.34
2023-01-29T04:28:00.572Z,91.60
2023-01-29T04:29:00.555Z,90.87
2023-01-29T04:30:00.561Z,90.66
2023-01-29T04:31:00.635Z,89.40
2023-01-29T04:32:00.533Z,90.09
2023-01-29T04:33:00.507Z,89.99
2023-01-29T04:34:00.499Z,91.25
2023-01-29T04:35:00.501Z,90.09
2023-01-29T04:36:00.509Z,90.41
2023-01-29T04:37:00.487Z,89.05
2023-01-29T04:38:00.454Z,87.69
2023-01-29T04:39:00.475Z,86.96
2023-01-29T04:40:00.431Z,88.84
2023-01-29T04:41:00.441Z,88.84
2023-01-29T04:42:00.428Z,89.68
2023-01-29T04:43:00.417Z,89.26
2023-01-29T04:44:00.402Z,89.47
2023-01-29T04:45:00.402Z,89.58
2023-01-29T04:46:00.418Z,89.99
2023-01-29T04:47:00.386Z,89.26
2023-01-29T04:48:00.371Z,89.58
2023-01-29T04:49:00.376Z,87.63
2023-01-29T04:50:00.396Z,87.21
2023-01-29T04:51:00.337Z,88.15
2023-01-29T04:52:00.323Z,88.99
2023-01-29T04:53:00.319Z,88.36
2023-01-29T04:54:00.297Z,88.67
2023-01-29T04:55:00.300Z,90.03
2023-01-29T04:56:00.278Z,89.93
2023-01-29T04:57:00.292Z,91.39
2023-01-29T04:58:00.267Z,90.45
2023-01-29T04:59:00.277Z,87.63
2023-01-29T05:00:00.236Z,87.42
2023-01-29T05:01:00.252Z,88.57
2023-01-29T05:02:00.334Z,87.73
2023-01-29T05:03:00.258Z,89.93
2023-01-29T05:04:00.198Z,89.61
2023-01-29T05:05:00.221Z,89.93
2023-01-29T05:06:00.202Z,90.34
2023-01-29T05:07:00.203Z,90.14
2023-01-29T05:08:00.168Z,88.36
2023-01-29T05:09:00.180Z,87.66
2023-01-29T05:10:00.161Z,88.19
2023-01-29T05:11:00.173Z,89.76
2023-01-29T05:12:00.141Z,90.59
2023-01-29T05:13:00.139Z,92.06
2023-01-29T05:14:00.110Z,91.02
2023-01-29T05:15:00.124Z,90.39
2023-01-29T05:16:00.115Z,88.82
2023-01-29T05:17:00.092Z,89.86
2023-01-29T05:18:00.111Z,90.56
2023-01-29T05:19:00.098Z,90.77
2023-01-29T05:20:00.047Z,90.56
2023-01-29T05:21:00.079Z,90.34
2023-01-29T05:22:00.014Z,91.71
2023-01-29T05:23:00.018Z,90.45
2023-01-29T05:24:00.069Z,88.46
2023-01-29T05:25:00.042Z,88.88
2023-01-29T05:25:59.989Z,90.14
2023-01-29T05:26:59.991Z,89.72
2023-01-29T05:28:00.007Z,89.83
2023-01-29T05:28:59.956Z,89.13
2023-01-29T05:29:59.951Z,92.54
2023-01-29T05:31:00.067Z,93.59
2023-01-29T05:32:00.004Z,92.60
2023-01-29T05:32:59.920Z,90.34
2023-01-29T05:33:59.948Z,90.66
2023-01-29T05:34:59.920Z,90.77
2023-01-29T05:35:59.904Z,92.29
2023-01-29T05:36:59.894Z,89.40
2023-01-29T05:37:59.870Z,89.72
2023-01-29T05:38:59.865Z,90.24
2023-01-29T05:39:59.864Z,89.40
2023-01-29T05:40:59.840Z,89.51
2023-01-29T05:41:59.858Z,91.60
2023-01-29T05:42:59.932Z,89.40
2023-01-29T05:43:59.823Z,88.36
2023-01-29T05:44:59.898Z,90.87
2023-01-29T05:45:59.842Z,89.03
2023-01-29T05:46:59.794Z,88.50
2023-01-29T05:47:59.779Z,91.60
2023-01-29T05:48:59.774Z,92.44
2023-01-29T05:49:59.752Z,92.33
2023-01-29T05:50:59.769Z,91.18
2023-01-29T05:51:59.727Z,91.60
2023-01-29T05:52:59.722Z,90.87
2023-01-29T05:53:59.799Z,89.93
2023-01-29T05:54:59.692Z,91.08
2023-01-29T05:55:59.690Z,89.61
2023-01-29T05:56:59.680Z,89.30
2023-01-29T05:57:59.677Z,90.34
2023-01-29T05:58:59.654Z,90.03
2023-01-29T05:59:59.660Z,90.56
2023-01-29T06:00:59.639Z,91.81
2023-01-29T06:01:59.751Z,92.02
2023-01-29T06:02:59.745Z,92.13
2023-01-29T06:03:59.626Z,92.08
2023-01-29T06:04:59.602Z,91.03
2023-01-29T06:05:59.603Z,91.14
2023-01-29T06:06:59.612Z,91.56
2023-01-29T06:07:59.581Z,89.47
2023-01-29T06:08:59.590Z,89.30
2023-01-29T06:09:59.552Z,91.98
2023-01-29T06:10:59.532Z,91.87
2023-01-29T06:11:59.563Z,89.99
2023-01-29T06:12:59.537Z,91.14
2023-01-29T06:13:59.533Z,90.83
2023-01-29T06:15:00.145Z,91.46
2023-01-29T06:15:59.530Z,89.26
2023-01-29T06:16:59.500Z,91.35
2023-01-29T06:17:59.485Z,91.98
2023-01-29T06:18:59.454Z,89.78
2023-01-29T06:19:59.473Z,90.09
2023-01-29T06:20:59.440Z,90.62
2023-01-29T06:21:59.442Z,90.41
2023-01-29T06:22:59.414Z,89.99
2023-01-29T06:23:59.507Z,90.52
2023-01-29T06:24:59.398Z,90.93
2023-01-29T06:25:59.391Z,91.46
2023-01-29T06:26:59.500Z,91.35
2023-01-29T06:27:59.669Z,90.93
2023-01-29T06:28:59.375Z,90.52
2023-01-29T06:29:59.359Z,90.52
2023-01-29T06:31:08.351Z,90.62
2023-01-29T06:31:59.473Z,90.52
2023-01-29T06:32:59.320Z,90.93
2023-01-29T06:33:59.325Z,90.09
2023-01-29T06:34:59.329Z,89.58
2023-01-29T06:35:59.290Z,91.03
2023-01-29T06:36:59.270Z,89.58
2023-01-29T06:37:59.292Z,88.95
2023-01-29T06:38:59.252Z,88.95
2023-01-29T06:39:59.264Z,90.31
2023-01-29T06:40:59.245Z,91.03
2023-01-29T06:41:59.227Z,91.98
2023-01-29T06:42:59.216Z,91.14
2023-01-29T06:43:59.215Z,89.05
2023-01-29T06:44:59.202Z,88.42
2023-01-29T06:45:59.275Z,90.20
2023-01-29T06:46:59.173Z,90.41
2023-01-29T06:48:01.315Z,89.68
2023-01-29T06:48:59.126Z,89.89
2023-01-29T06:49:59.108Z,89.68
2023-01-29T06:50:59.138Z,89.47
2023-01-29T06:51:59.136Z,90.09
2023-01-29T06:52:59.076Z,89.68
2023-01-29T06:53:59.114Z,90.93
2023-01-29T06:54:59.129Z,91.03
2023-01-29T06:55:59.050Z,91.77
2023-01-29T06:56:59.136Z,90.83
2023-01-29T06:57:59.043Z,89.47
2023-01-29T06:58:59.013Z,89.89
2023-01-29T06:59:59.012Z,89.47
2023-01-29T07:00:59.036Z,88.95
2023-01-29T07:01:59.031Z,91.46
2023-01-29T07:02:58.973Z,91.98
2023-01-29T07:03:58.993Z,91.35
2023-01-29T07:04:58.948Z,91.25
2023-01-29T07:05:58.942Z,90.20
2023-01-29T07:06:58.935Z,88.32
2023-01-29T07:07:58.925Z,89.26
2023-01-29T07:08:58.916Z,89.58
2023-01-29T07:09:58.920Z,91.56
2023-01-29T07:10:58.883Z,92.19
2023-01-29T07:11:58.893Z,92.19
2023-01-29T07:12:58.863Z,91.25
2023-01-29T07:13:58.885Z,89.68
2023-01-29T07:14:58.842Z,89.68
2023-01-29T07:15:58.873Z,89.68
2023-01-29T07:16:58.855Z,90.62
2023-01-29T07:17:58.829Z,89.58
2023-01-29T07:18:58.818Z,89.36
2023-01-29T07:19:58.844Z,90.52
2023-01-29T07:20:58.786Z,92.29
2023-01-29T07:21:58.785Z,92.50
2023-01-29T07:22:58.759Z,91.46
2023-01-29T07:23:58.799Z,90.09
2023-01-29T07:24:58.767Z,89.26
2023-01-29T07:25:58.743Z,90.93
2023-01-29T07:26:58.735Z,91.56
2023-01-29T07:28:00.887Z,91.25
2023-01-29T07:28:58.702Z,90.20
2023-01-29T07:29:58.719Z,89.99
2023-01-29T07:30:58.752Z,89.68
2023-01-29T07:31:58.795Z,91.03
2023-01-29T07:32:58.671Z,91.56
2023-01-29T07:33:58.663Z,90.52
2023-01-29T07:34:58.675Z,90.31
2023-01-29T07:35:58.667Z,89.51
2023-01-29T07:36:58.689Z,90.52
2023-01-29T07:37:58.622Z,91.35
2023-01-29T07:38:58.606Z,90.93
2023-01-29T07:39:58.643Z,91.35
2023-01-29T07:40:58.588Z,90.31
2023-01-29T07:41:58.615Z,90.31
2023-01-29T07:42:58.591Z,90.20
2023-01-29T07:43:58.564Z,90.20
2023-01-29T07:44:58.552Z,90.52
2023-01-29T07:45:58.624Z,90.93
2023-01-29T07:46:58.535Z,90.83
2023-01-29T07:47:58.585Z,89.58
2023-01-29T07:48:58.551Z,88.67
2023-01-29T07:49:58.500Z,88.88
2023-01-29T07:50:58.508Z,91.03
2023-01-29T07:51:58.520Z,89.51
2023-01-29T07:52:58.483Z,90.34
2023-01-29T07:53:58.530Z,90.34
2023-01-29T07:54:58.444Z,91.60
2023-01-29T07:55:58.473Z,92.19
2023-01-29T07:56:58.466Z,92.71
2023-01-29T07:57:58.466Z,91.77
2023-01-29T07:58:58.409Z,90.83
2023-01-29T07:59:58.440Z,90.20
2023-01-29T08:00:58.438Z,91.03
2023-01-29T08:01:58.431Z,90.52
2023-01-29T08:02:58.447Z,90.41
2023-01-29T08:03:58.372Z,91.66
2023-01-29T08:04:58.364Z,89.99
2023-01-29T08:05:58.424Z,90.41
2023-01-29T08:06:58.336Z,89.78
2023-01-29T08:08:06.535Z,89.58
2023-01-29T08:08:58.425Z,90.41
2023-01-29T08:09:58.334Z,90.62
2023-01-29T08:10:58.283Z,91.14
2023-01-29T08:11:58.552Z,90.52
2023-01-29T08:12:58.283Z,91.56
2023-01-29T08:13:58.296Z,90.93
2023-01-29T08:14:58.319Z,93.13
2023-01-29T08:15:58.252Z,92.19
2023-01-29T08:16:58.252Z,90.41
2023-01-29T08:17:58.657Z,91.25
2023-01-29T08:18:58.207Z,90.89
2023-01-29T08:19:58.243Z,91.10
2023-01-29T08:20:58.240Z,91.00
2023-01-29T08:21:58.215Z,91.41
2023-01-29T08:22:58.162Z,91.52
2023-01-29T08:23:58.265Z,91.20
2023-01-29T08:25:07.741Z,90.78
2023-01-29T08:25:58.235Z,92.88
2023-01-29T08:26:58.168Z,90.68
2023-01-29T08:27:58.133Z,90.26
2023-01-29T08:28:58.113Z,91.10
2023-01-29T08:29:58.186Z,90.26
2023-01-29T08:30:58.148Z,89.74
2023-01-29T08:31:58.263Z,88.39
2023-01-29T08:32:58.103Z,87.86
2023-01-29T08:33:58.092Z,89.84
2023-01-29T08:34:58.060Z,90.47
2023-01-29T08:35:58.058Z,89.22
2023-01-29T08:36:58.638Z,89.95
2023-01-29T08:37:58.058Z,89.53
2023-01-29T08:38:58.021Z,91.58
2023-01-29T08:39:58.029Z,90.95
2023-01-29T08:40:58.011Z,90.64
2023-01-29T08:41:58.021Z,90.75
2023-01-29T08:42:58.862Z,90.95
2023-01-29T08:43:57.978Z,90.28
2023-01-29T08:44:57.981Z,89.87
2023-01-29T08:45:58.100Z,90.08
2023-01-29T08:46:57.940Z,89.45
2023-01-29T08:47:57.962Z,87.78
2023-01-29T08:48:57.935Z,88.09
2023-01-29T08:49:57.905Z,87.68
2023-01-29T08:50:57.904Z,87.78
2023-01-29T08:51:57.897Z,87.88
2023-01-29T08:52:57.908Z,88.20
2023-01-29T08:53:57.926Z,89.97
2023-01-29T08:54:57.845Z,89.45
2023-01-29T08:55:57.862Z,88.41
2023-01-29T08:56:57.851Z,88.62
2023-01-29T08:57:57.860Z,87.99
2023-01-29T08:58:59.172Z,86.84
2023-01-29T08:59:57.826Z,88.09
2023-01-29T09:00:57.844Z,87.88
2023-01-29T09:01:57.795Z,88.41
2023-01-29T09:02:57.789Z,88.72
2023-01-29T09:03:57.778Z,87.37
2023-01-29T09:04:57.761Z,87.47
2023-01-29T09:05:57.746Z,87.47
2023-01-29T09:06:57.731Z,87.37
2023-01-29T09:07:57.748Z,86.77
2023-01-29T09:08:57.729Z,87.19
2023-01-29T09:09:57.720Z,87.47
2023-01-29T09:10:57.698Z,87.57
2023-01-29T09:11:57.700Z,86.94
2023-01-29T09:12:57.684Z,86.94
2023-01-29T09:13:57.669Z,86.94
2023-01-29T09:14:57.674Z,86.53
2023-01-29T09:15:58.024Z,86.32
2023-01-29T09:16:57.709Z,86.84
2023-01-29T09:17:57.652Z,87.26
2023-01-29T09:18:57.631Z,87.88
2023-01-29T09:19:57.660Z,87.19
2023-01-29T09:20:57.594Z,87.71
2023-01-29T09:21:57.616Z,88.41
2023-01-29T09:22:57.581Z,88.72
2023-01-29T09:23:57.581Z,88.62
2023-01-29T09:24:57.573Z,88.72
2023-01-29T09:25:57.555Z,88.09
2023-01-29T09:26:57.550Z,87.57
2023-01-29T09:27:57.541Z,87.57
2023-01-29T09:28:57.514Z,88.09
2023-01-29T09:29:57.532Z,87.47
2023-01-29T09:30:57.586Z,87.26
2023-01-29T09:31:57.596Z,87.57
2023-01-29T09:32:57.559Z,87.47
2023-01-29T09:33:57.482Z,88.09
2023-01-29T09:34:57.459Z,88.30
2023-01-29T09:35:57.468Z,88.72
2023-01-29T09:36:57.453Z,87.57
2023-01-29T09:37:57.464Z,87.88
2023-01-29T09:38:57.412Z,87.26
2023-01-29T09:39:57.417Z,87.68
2023-01-29T09:40:57.408Z,88.78
2023-01-29T09:41:57.390Z,88.89
2023-01-29T09:42:57.407Z,89.51
2023-01-29T09:43:57.386Z,88.78
2023-01-29T09:44:57.363Z,87.43
2023-01-29T09:45:57.387Z,87.84
2023-01-29T09:46:57.347Z,87.95
2023-01-29T09:47:57.345Z,86.91
2023-01-29T09:48:57.352Z,88.16
2023-01-29T09:49:57.317Z,86.18
2023-01-29T09:50:57.292Z,86.28
2023-01-29T09:51:57.293Z,87.32
2023-01-29T09:52:57.309Z,88.01
2023-01-29T09:53:57.298Z,86.97
2023-01-29T09:54:57.253Z,86.55
2023-01-29T09:55:57.255Z,86.66
2023-01-29T09:56:57.247Z,86.55
2023-01-29T09:57:57.250Z,86.55
2023-01-29T09:58:58.020Z,87.49
2023-01-29T09:59:57.266Z,86.87
2023-01-29T10:00:57.192Z,86.24
2023-01-29T10:01:57.324Z,86.45
2023-01-29T10:02:57.194Z,84.99
2023-01-29T10:03:57.207Z,85.41
2023-01-29T10:04:57.160Z,87.18
2023-01-29T10:05:57.150Z,85.93
2023-01-29T10:06:57.138Z,86.35
2023-01-29T10:07:57.138Z,86.35
2023-01-29T10:08:57.131Z,86.24
2023-01-29T10:09:57.148Z,86.76
2023-01-29T10:10:57.105Z,86.97
2023-01-29T10:11:58.196Z,87.49
2023-01-29T10:12:57.077Z,87.70
2023-01-29T10:13:57.092Z,86.87
2023-01-29T10:14:57.083Z,87.66
2023-01-29T10:15:57.051Z,85.47
2023-01-29T10:16:57.162Z,85.68
2023-01-29T10:17:57.042Z,87.14
2023-01-29T10:18:57.071Z,87.04
2023-01-29T10:19:57.004Z,86.30
2023-01-29T10:20:57.031Z,86.10
2023-01-29T10:21:57.077Z,86.10
2023-01-29T10:22:56.983Z,85.99
2023-01-29T10:23:56.987Z,86.83
2023-01-29T10:24:56.970Z,86.93
2023-01-29T10:25:56.943Z,86.51
2023-01-29T10:26:56.974Z,86.10
2023-01-29T10:27:56.990Z,85.99
2023-01-29T10:28:56.940Z,85.36
2023-01-29T10:29:56.937Z,85.58
2023-01-29T10:30:57.049Z,86.41
2023-01-29T10:31:57.052Z,86.93
2023-01-29T10:32:56.890Z,86.68
2023-01-29T10:34:02.421Z,86.68
2023-01-29T10:34:56.875Z,85.12
2023-01-29T10:35:56.935Z,85.02
2023-01-29T10:36:56.846Z,85.12
2023-01-29T10:37:56.827Z,85.22
2023-01-29T10:38:56.833Z,85.43
2023-01-29T10:39:56.806Z,85.64
2023-01-29T10:40:56.848Z,86.27
2023-01-29T10:41:56.825Z,84.70
2023-01-29T10:42:56.783Z,84.64
2023-01-29T10:43:56.766Z,84.01
2023-01-29T10:44:56.784Z,86.51
2023-01-29T10:45:56.752Z,85.99
2023-01-29T10:46:56.762Z,85.16
2023-01-29T10:47:56.736Z,85.05
2023-01-29T10:48:56.729Z,85.47
2023-01-29T10:49:56.700Z,85.89
2023-01-29T10:50:56.732Z,86.51
2023-01-29T10:51:56.686Z,85.16
2023-01-29T10:52:57.341Z,87.52
2023-01-29T10:53:56.668Z,85.22
2023-01-29T10:54:56.665Z,85.85
2023-01-29T10:55:56.650Z,83.66
2023-01-29T10:56:56.672Z,85.85
2023-01-29T10:57:56.636Z,84.81
2023-01-29T10:58:56.634Z,83.45
2023-01-29T10:59:56.612Z,83.76
2023-01-29T11:00:56.603Z,83.76
2023-01-29T11:01:56.656Z,84.28
2023-01-29T11:02:56.798Z,86.89
2023-01-29T11:03:56.572Z,85.96
2023-01-29T11:04:56.564Z,84.39
2023-01-29T11:05:56.543Z,82.10
2023-01-29T11:06:56.561Z,85.53
2023-01-29T11:07:56.543Z,85.74
2023-01-29T11:08:56.526Z,85.22
2023-01-29T11:09:56.516Z,84.70
2023-01-29T11:10:56.523Z,85.02
2023-01-29T11:11:56.500Z,83.87
2023-01-29T11:12:56.492Z,84.28
2023-01-29T11:13:56.508Z,84.12
2023-01-29T11:14:56.476Z,86.20
2023-01-29T11:15:56.442Z,86.27
2023-01-29T11:16:56.538Z,84.50
2023-01-29T11:17:56.419Z,85.43
2023-01-29T11:18:56.474Z,85.85
2023-01-29T11:19:56.419Z,85.22
2023-01-29T11:20:56.398Z,84.50
2023-01-29T11:21:56.393Z,85.02
2023-01-29T11:22:56.386Z,85.02
2023-01-29T11:23:56.403Z,84.70
2023-01-29T11:24:56.375Z,85.53
2023-01-29T11:25:56.341Z,84.28
2023-01-29T11:26:56.352Z,83.87
2023-01-29T11:27:56.327Z,83.87
2023-01-29T11:28:56.338Z,84.50
2023-01-29T11:29:56.331Z,83.76
2023-01-29T11:30:56.447Z,86.27
2023-01-29T11:31:56.359Z,85.39
2023-01-29T11:32:56.279Z,83.42
2023-01-29T11:33:56.266Z,83.42
2023-01-29T11:34:56.265Z,84.56
2023-01-29T11:35:56.258Z,84.35
2023-01-29T11:36:56.249Z,83.52
2023-01-29T11:37:56.240Z,82.06
2023-01-29T11:38:56.243Z,83.00
2023-01-29T11:39:56.277Z,82.48
2023-01-29T11:40:56.261Z,83.00
2023-01-29T11:41:56.190Z,83.42
2023-01-29T11:42:56.201Z,83.10
2023-01-29T11:43:56.170Z,83.10
2023-01-29T11:44:56.163Z,82.58
2023-01-29T11:45:56.171Z,83.94
2023-01-29T11:46:56.154Z,84.25
2023-01-29T11:47:57.833Z,82.89
2023-01-29T11:48:59.384Z,82.58
2023-01-29T11:49:56.101Z,83.10
2023-01-29T11:50:56.127Z,82.27
2023-01-29T11:51:56.081Z,83.10
2023-01-29T11:52:56.092Z,83.31
2023-01-29T11:53:56.075Z,83.52
2023-01-29T11:54:56.078Z,83.48
2023-01-29T11:55:56.051Z,83.06
2023-01-29T11:56:56.046Z,82.75
2023-01-29T11:57:56.079Z,84.52
2023-01-29T11:58:56.055Z,83.69
2023-01-29T11:59:56.018Z,82.54
2023-01-29T12:00:56.758Z,82.13
2023-01-29T12:01:56.084Z,83.27
2023-01-29T12:02:56.724Z,82.13
2023-01-29T12:03:55.989Z,82.03
2023-01-29T12:04:55.979Z,82.75
2023-01-29T12:05:55.964Z,81.92
2023-01-29T12:06:55.936Z,82.65
2023-01-29T12:07:55.920Z,82.23
2023-01-29T12:08:55.923Z,82.44
2023-01-29T12:09:55.906Z,82.86
2023-01-29T12:10:55.924Z,82.13
2023-01-29T12:11:55.906Z,82.65
2023-01-29T12:12:55.898Z,82.75
2023-01-29T12:13:55.948Z,84.21
2023-01-29T12:14:55.868Z,81.81
2023-01-29T12:15:55.851Z,82.44
2023-01-29T12:16:55.880Z,82.75
2023-01-29T12:17:55.828Z,82.54
2023-01-29T12:18:55.851Z,83.17
2023-01-29T12:19:55.863Z,84.31
2023-01-29T12:20:55.883Z,83.23
2023-01-29T12:21:55.834Z,82.34
2023-01-29T12:22:56.128Z,81.50
2023-01-29T12:23:55.771Z,82.86
2023-01-29T12:24:55.777Z,83.13
2023-01-29T12:25:55.791Z,83.86
2023-01-29T12:26:55.750Z,82.30
2023-01-29T12:27:55.712Z,82.92
2023-01-29T12:28:55.744Z,81.67
2023-01-29T12:29:55.731Z,82.30
2023-01-29T12:30:55.728Z,82.34
2023-01-29T12:31:55.714Z,82.54
2023-01-29T12:32:55.690Z,83.58
2023-01-29T12:33:55.701Z,82.44
2023-01-29T12:34:55.661Z,82.34
2023-01-29T12:35:55.645Z,82.44
2023-01-29T12:36:55.630Z,83.65
2023-01-29T12:37:55.632Z,83.13
2023-01-29T12:38:55.627Z,82.92
2023-01-29T12:39:55.598Z,82.82
2023-01-29T12:40:55.613Z,82.09
2023-01-29T12:41:55.601Z,82.71
2023-01-29T12:42:55.578Z,82.51
2023-01-29T12:43:55.569Z,82.40
2023-01-29T12:44:55.553Z,82.30
2023-01-29T12:45:55.568Z,83.44
2023-01-29T12:46:55.593Z,82.09
2023-01-29T12:47:55.540Z,82.20
2023-01-29T12:48:55.523Z,82.82
2023-01-29T12:49:55.499Z,81.81
2023-01-29T12:50:55.503Z,83.27
2023-01-29T12:51:55.497Z,83.58